Time;durP1;ratioP1;P1;durP2;ratioP2;P2;SDS_P1;SDS_P2;PMS_P1;PMS_P2;Temp;Humidity;BMP_temperature;BMP_pressure;BME280_temperature;BME280_humidity;BME280_pressure;Samples;Min_cycle;Max_cycle;Signal;HPM_P1;HPM_P2
2023/01/12 00:01:55;;;;;;;;;;;;;;;24.72;33.56;95251.66;4999271;28;1723;-74
2023/01/12 00:04:20;;;;;;;;;;;;;;;24.72;33.53;95259.72;4993010;28;1564;-74
2023/01/12 00:06:47;;;;;;;;;;;;;;;24.76;33.62;95260.91;5004025;28;1898;-73
2023/01/12 00:09:12;;;;;;;;;;;;;;;24.74;33.75;95252.28;4990054;28;1612;-73
2023/01/12 00:11:38;;;;;;;;;;;;;;;24.74;33.64;95260.31;4992864;28;1654;-73
2023/01/12 00:14:04;;;;;;;;;;;;;;;24.72;34.03;95262.41;4999221;28;1660;-73
2023/01/12 00:16:38;;;;;;;;;;;;;;;24.71;34.03;95254.59;5002122;28;1785;-75
2023/01/12 00:19:11;;;;;;;;;;;;;;;24.71;34.23;95252.72;4993851;28;1697;-74
2023/01/12 00:24:27;;;;;;;;;;;;;;;24.76;34.06;95260.06;4991446;28;1712;-75
2023/01/12 00:26:52;;;;;;;;;;;;;;;24.73;34.14;95261.34;5007251;28;1894;-74
2023/01/12 00:29:18;;;;;;;;;;;;;;;24.73;34.30;95257.84;4999275;28;1589;-74
2023/01/12 00:31:44;;;;;;;;;;;;;;;24.76;33.87;95268.13;4989606;28;1733;-73
2023/01/12 00:34:09;;;;;;;;;;;;;;;24.77;34.29;95257.19;4993376;28;1747;-74
2023/01/12 00:36:34;;;;;;;;;;;;;;;24.75;34.37;95261.13;5009571;28;1584;-75
2023/01/12 00:39:00;;;;;;;;;;;;;;;24.75;34.54;95253.91;4997935;28;1579;-75
2023/01/12 00:46:54;;;;;;;;;;;;;;;24.75;34.56;95258.44;4994967;28;1902;-75
2023/01/12 00:49:19;;;;;;;;;;;;;;;24.73;34.30;95255.16;4996519;28;1638;-75
2023/01/12 00:51:44;;;;;;;;;;;;;;;24.75;34.64;95256.59;4997834;28;1711;-75
2023/01/12 00:54:10;;;;;;;;;;;;;;;24.73;34.55;95257.84;4994696;28;1729;-75
2023/01/12 00:56:35;;;;;;;;;;;;;;;24.75;34.70;95250.41;4994259;28;1628;-75
2023/01/12 00:59:00;;;;;;;;;;;;;;;24.71;34.74;95262.66;4991161;28;1418;-75
2023/01/12 01:01:26;;;;;;;;;;;;;;;24.73;34.55;95260.53;4997057;28;1818;-75
2023/01/12 01:03:51;;;;;;;;;;;;;;;24.71;34.61;95254.59;4998841;28;1506;-74
2023/01/12 01:06:16;;;;;;;;;;;;;;;24.73;34.61;95258.66;4985071;28;1955;-74
2023/01/12 01:08:42;;;;;;;;;;;;;;;24.71;34.47;95252.72;5004903;28;1768;-74
2023/01/12 01:11:08;;;;;;;;;;;;;;;24.73;34.78;95260.53;5000017;28;1674;-74
2023/01/12 01:13:35;;;;;;;;;;;;;;;24.73;34.45;95258.66;4982709;28;1558;-74
2023/01/12 01:16:01;;;;;;;;;;;;;;;24.75;34.73;95256.59;4993502;28;1667;-74
2023/01/12 01:18:26;;;;;;;;;;;;;;;24.73;34.76;95258.66;4984601;28;1440;-74
2023/01/12 01:20:52;;;;;;;;;;;;;;;24.73;34.76;95250.63;4985219;28;1693;-74
2023/01/12 01:23:17;;;;;;;;;;;;;;;24.73;34.60;95253.28;4992750;28;1602;-74
2023/01/12 01:25:43;;;;;;;;;;;;;;;24.75;34.61;95251.22;4994793;28;1667;-74
2023/01/12 01:28:08;;;;;;;;;;;;;;;24.74;34.53;95254.13;4988668;28;1981;-73
2023/01/12 01:30:33;;;;;;;;;;;;;;;24.71;34.80;95255.41;4988534;28;1581;-73
2023/01/12 01:32:58;;;;;;;;;;;;;;;24.74;34.64;95264.88;4993797;28;1515;-74
2023/01/12 01:35:23;;;;;;;;;;;;;;;24.72;34.84;95264.28;4995659;28;1682;-76
2023/01/12 01:37:49;;;;;;;;;;;;;;;24.69;34.86;95273.59;5004304;28;1758;-75
2023/01/12 01:40:14;;;;;;;;;;;;;;;24.69;34.71;95273.59;4982750;28;1806;-74
2023/01/12 01:42:40;;;;;;;;;;;;;;;24.72;34.97;95280.38;4992545;28;1562;-74
2023/01/12 01:45:08;;;;;;;;;;;;;;;24.69;35.04;95273.59;4996995;28;1593;-73
2023/01/12 01:47:40;;;;;;;;;;;;;;;24.69;34.98;95274.41;4997525;28;1918;-73
2023/01/12 01:50:12;;;;;;;;;;;;;;;24.69;35.04;95284.31;4992040;28;1803;-73
2023/01/12 01:52:40;;;;;;;;;;;;;;;24.71;35.14;95289.47;4988969;28;1550;-75
2023/01/12 01:55:15;;;;;;;;;;;;;;;24.68;35.47;95277.31;5004221;28;1744;-73
2023/01/12 01:57:46;;;;;;;;;;;;;;;24.69;35.17;95287.00;4992617;28;807;-73
2023/01/12 02:00:12;;;;;;;;;;;;;;;24.70;35.19;95288.63;4992023;28;1529;-73
2023/01/12 02:02:38;;;;;;;;;;;;;;;24.72;35.16;95283.88;4991713;28;1697;-73
2023/01/12 02:05:03;;;;;;;;;;;;;;;24.72;35.23;95283.06;4987028;28;1728;-73
2023/01/12 02:07:29;;;;;;;;;;;;;;;24.74;35.37;95287.16;5000763;28;1906;-73
2023/01/12 02:09:54;;;;;;;;;;;;;;;24.74;35.16;95281.78;4996429;28;1756;-74
2023/01/12 02:18:09;;;;;;;;;;;;;;;24.72;35.51;95283.06;4998315;28;1592;-73
2023/01/12 02:20:53;;;;;;;;;;;;;;;24.69;35.63;95284.31;4999573;28;1572;-74
2023/01/12 02:23:18;;;;;;;;;;;;;;;24.66;35.76;95282.91;4991923;28;1752;-74
2023/01/12 02:25:53;;;;;;;;;;;;;;;24.77;35.28;95289.38;4988455;28;1645;-73
2023/01/12 02:28:38;;;;;;;;;;;;;;;24.81;35.05;95282.50;4992084;28;1813;-73
2023/01/12 02:31:25;;;;;;;;;;;;;;;24.82;35.23;95278.78;4999558;28;1590;-73
2023/01/12 02:33:50;;;;;;;;;;;;;;;24.81;35.19;95274.47;5006319;28;1647;-73
2023/01/12 02:36:36;;;;;;;;;;;;;;;24.81;35.38;95282.50;4987723;28;1438;-73
2023/01/12 02:39:04;;;;;;;;;;;;;;;24.76;35.58;95277.03;4989089;28;1752;-73
2023/01/12 02:44:38;;;;;;;;;;;;;;;24.76;35.59;95268.97;4976737;28;1552;-73
2023/01/12 02:47:05;;;;;;;;;;;;;;;24.77;35.37;95275.16;4992670;28;1915;-74
2023/01/12 02:49:35;;;;;;;;;;;;;;;24.77;35.54;95267.91;4988399;28;1614;-73
2023/01/12 02:52:03;;;;;;;;;;;;;;;24.79;35.42;95273.03;5005542;28;1718;-74
2023/01/12 02:54:29;;;;;;;;;;;;;;;24.82;35.46;95270.75;4988144;28;1670;-73
2023/01/12 02:56:58;;;;;;;;;;;;;;;24.84;35.30;95267.81;4993812;28;1899;-73
2023/01/12 02:59:29;;;;;;;;;;;;;;;24.84;35.31;95268.63;4987663;28;1378;-74
2023/01/12 03:02:00;;;;;;;;;;;;;;;24.86;35.40;95273.78;4994976;28;1708;-73
2023/01/12 03:04:27;;;;;;;;;;;;;;;24.82;35.65;95264.56;4991483;28;1386;-73
2023/01/12 03:06:55;;;;;;;;;;;;;;;24.84;35.38;95265.13;4999055;28;1875;-73
2023/01/12 03:09:21;;;;;;;;;;;;;;;24.86;35.31;95269.25;4994060;28;1601;-73
2023/01/12 03:11:49;;;;;;;;;;;;;;;24.84;35.28;95262.44;5012697;28;1659;-73
2023/01/12 03:14:16;;;;;;;;;;;;;;;24.88;35.46;95260.97;4990335;28;1585;-73
2023/01/12 03:16:41;;;;;;;;;;;;;;;24.85;35.33;95259.56;5003239;28;1723;-73
2023/01/12 03:19:09;;;;;;;;;;;;;;;24.88;34.78;95261.78;4991034;28;1611;-73
2023/01/12 03:21:39;;;;;;;;;;;;;;;24.86;35.34;95257.69;4994668;28;1753;-73
2023/01/12 03:24:06;;;;;;;;;;;;;;;24.88;35.27;95256.41;4993348;28;1697;-72
2023/01/12 03:26:34;;;;;;;;;;;;;;;24.84;35.36;95260.59;4996791;28;1957;-73
2023/01/12 03:29:11;;;;;;;;;;;;;;;24.84;35.38;95259.78;4994984;28;1647;-73
2023/01/12 03:31:36;;;;;;;;;;;;;;;24.83;35.32;95264.31;5010896;28;1729;-73
2023/01/12 03:34:02;;;;;;;;;;;;;;;24.83;35.04;95261.66;4997830;28;1832;-73
2023/01/12 03:37:03;;;;;;;;;;;;;;;24.85;35.22;95262.25;4999079;28;1658;-73
2023/01/12 03:39:31;;;;;;;;;;;;;;;24.82;35.18;95257.31;4973062;28;1556;-72
2023/01/12 03:42:08;;;;;;;;;;;;;;;24.82;35.38;95256.53;4990378;28;1758;-72
2023/01/12 03:44:52;;;;;;;;;;;;;;;24.81;35.60;95260.22;4992605;28;1531;-72
2023/01/12 03:47:22;;;;;;;;;;;;;;;24.83;35.21;95261.66;4995998;28;1962;-73
2023/01/12 03:49:54;;;;;;;;;;;;;;;24.83;35.30;95258.16;4994608;28;1573;-74
2023/01/12 03:52:20;;;;;;;;;;;;;;;24.85;35.47;95258.75;4992718;28;1678;-74
2023/01/12 03:54:47;;;;;;;;;;;;;;;24.91;35.19;95255.16;4995491;28;1499;-73
2023/01/12 03:57:12;;;;;;;;;;;;;;;24.89;35.33;95243.81;4985604;28;1741;-73
2023/01/12 03:59:38;;;;;;;;;;;;;;;24.85;35.12;95246.13;4993661;28;1649;-74
2023/01/12 04:02:03;;;;;;;;;;;;;;;24.79;35.47;95252.41;4993004;28;1615;-74
2023/01/12 04:04:29;;;;;;;;;;;;;;;24.79;35.55;95260.47;4995192;28;1666;-73
2023/01/12 04:06:54;;;;;;;;;;;;;;;24.79;35.21;95254.25;4997862;28;1902;-73
2023/01/12 04:09:21;;;;;;;;;;;;;;;24.83;35.10;95264.31;4992249;28;1668;-73
2023/01/12 04:14:30;;;;;;;;;;;;;;;23.20;25.87;95260.06;5002420;28;1659;-73
2023/01/12 04:16:56;;;;;;;;;;;;;;;22.54;29.70;95266.53;4997077;28;1615;-73
2023/01/12 04:19:21;;;;;;;;;;;;;;;22.98;31.12;95261.44;4983799;28;1398;-74
2023/01/12 04:24:30;;;;;;;;;;;;;;;22.67;26.10;95260.31;4993829;28;1598;-73
2023/01/12 04:26:56;;;;;;;;;;;;;;;21.66;25.85;95258.88;4995814;28;1914;-72
2023/01/12 04:29:21;;;;;;;;;;;;;;;21.01;25.98;95263.09;5004143;28;1796;-72
2023/01/12 04:31:46;;;;;;;;;;;;;;;20.45;25.82;95258.78;5015865;28;1660;-71
2023/01/12 04:34:11;;;;;;;;;;;;;;;20.07;26.31;95258.38;4997593;28;1700;-72
2023/01/12 04:36:37;;;;;;;;;;;;;;;19.78;26.77;95262.91;4993541;28;1618;-73
2023/01/12 04:39:02;;;;;;;;;;;;;;;19.54;26.63;95270.25;4992716;28;1602;-72
2023/01/12 04:41:27;;;;;;;;;;;;;;;19.28;26.77;95270.03;4988586;28;1461;-73
2023/01/12 04:43:52;;;;;;;;;;;;;;;19.11;27.10;95264.16;5020330;28;1541;-73
2023/01/12 04:46:18;;;;;;;;;;;;;;;19.00;27.15;95276.09;4994775;28;1944;-72
2023/01/12 04:48:44;;;;;;;;;;;;;;;18.88;27.22;95269.66;5000608;28;1792;-72
2023/01/12 04:51:09;;;;;;;;;;;;;;;18.79;27.45;95274.25;4994091;28;1536;-72
2023/01/12 04:53:35;;;;;;;;;;;;;;;18.80;27.83;95277.72;4995600;28;1646;-72
2023/01/12 04:56:04;;;;;;;;;;;;;;;18.81;29.81;95268.72;4995697;28;1694;-73
2023/01/12 04:58:30;;;;;;;;;;;;;;;19.37;29.23;95281.38;4992609;28;1640;-71
2023/01/12 05:00:55;;;;;;;;;;;;;;;19.86;29.59;95272.56;4990889;28;1820;-72
2023/01/12 05:03:20;;;;;;;;;;;;;;;20.48;29.78;95273.53;4990400;28;1321;-72
2023/01/12 05:05:45;;;;;;;;;;;;;;;20.90;29.49;95272.50;4984013;28;1644;-72
2023/01/12 05:10:56;;;;;;;;;;;;;;;21.33;28.87;95281.00;4988772;28;1483;-72
2023/01/12 05:13:23;;;;;;;;;;;;;;;21.40;29.24;95290.88;4989715;28;1483;-72
2023/01/12 05:15:48;;;;;;;;;;;;;;;21.61;29.79;95293.38;4989203;28;1611;-71
2023/01/12 05:18:14;;;;;;;;;;;;;;;21.83;29.88;95287.81;4987815;28;1070;-73
2023/01/12 05:20:39;;;;;;;;;;;;;;;21.98;29.85;95296.44;4991530;28;1583;-73
2023/01/12 05:23:04;;;;;;;;;;;;;;;22.08;29.93;95291.47;4992575;28;906;-73
2023/01/12 05:25:31;;;;;;;;;;;;;;;22.16;29.90;95301.97;4991672;28;1292;-72
2023/01/12 05:27:57;;;;;;;;;;;;;;;22.23;29.89;95292.13;4984370;28;1970;-73
2023/01/12 05:30:22;;;;;;;;;;;;;;;22.32;30.00;95302.59;4991963;28;1360;-73
2023/01/12 05:32:48;;;;;;;;;;;;;;;22.39;30.08;95306.06;4993006;28;867;-73
2023/01/12 05:35:13;;;;;;;;;;;;;;;22.47;29.75;95313.84;4991015;28;1403;-73
2023/01/12 05:37:38;;;;;;;;;;;;;;;22.51;29.91;95320.41;4990796;28;910;-73
2023/01/12 05:40:04;;;;;;;;;;;;;;;22.58;29.97;95320.41;5012937;28;1263;-73
2023/01/12 05:45:13;;;;;;;;;;;;;;;22.70;29.60;95320.56;4990517;28;733;-73
2023/01/12 05:47:38;;;;;;;;;;;;;;;22.74;29.71;95327.13;4990920;28;1940;-73
2023/01/12 05:50:04;;;;;;;;;;;;;;;22.80;29.77;95328.97;4984066;28;1429;-73
2023/01/12 05:52:29;;;;;;;;;;;;;;;22.85;29.74;95337.16;4990789;28;1303;-73
2023/01/12 05:54:54;;;;;;;;;;;;;;;22.91;29.79;95331.00;4993030;28;867;-73
2023/01/12 05:57:20;;;;;;;;;;;;;;;22.95;29.56;95326.03;4993216;28;800;-73
2023/01/12 05:59:45;;;;;;;;;;;;;;;23.01;29.70;95328.72;4993016;28;873;-73
2023/01/12 06:02:12;;;;;;;;;;;;;;;23.07;29.69;95329.72;4983184;28;1084;-73
2023/01/12 06:04:38;;;;;;;;;;;;;;;23.11;29.60;95326.41;4992973;28;907;-72
2023/01/12 06:07:04;;;;;;;;;;;;;;;23.15;29.26;95332.16;4991372;28;1902;-72
2023/01/12 06:09:29;;;;;;;;;;;;;;;23.17;29.35;95323.88;4991543;28;1591;-72
2023/01/12 06:14:38;;;;;;;;;;;;;;;23.19;29.43;95324.50;4987430;28;1104;-72
2023/01/12 06:17:03;;;;;;;;;;;;;;;23.22;29.54;95332.91;5023194;28;1268;-72
2023/01/12 06:19:29;;;;;;;;;;;;;;;23.22;29.40;95338.25;4991334;28;1324;-72
2023/01/12 06:21:58;;;;;;;;;;;;;;;23.24;29.47;95324.69;4992047;28;957;-73
2023/01/12 06:24:23;;;;;;;;;;;;;;;23.25;29.57;95320.97;4982560;28;1079;-72
2023/01/12 06:26:48;;;;;;;;;;;;;;;23.26;29.77;95322.63;4991223;28;1903;-72
2023/01/12 06:29:14;;;;;;;;;;;;;;;23.28;29.45;95326.72;4991309;28;1204;-73
2023/01/12 06:31:39;;;;;;;;;;;;;;;23.29;29.66;95332.91;5023598;28;1413;-72
2023/01/12 06:34:06;;;;;;;;;;;;;;;23.30;29.61;95330.00;5024157;28;1419;-72
2023/01/12 06:36:32;;;;;;;;;;;;;;;23.31;29.42;95334.31;4982870;28;1257;-72
2023/01/12 06:38:57;;;;;;;;;;;;;;;23.32;29.69;95343.19;4992024;28;941;-72
2023/01/12 06:44:06;;;;;;;;;;;;;;;23.31;29.59;95341.53;4992274;28;715;-72
2023/01/12 06:46:31;;;;;;;;;;;;;;;23.32;29.74;95341.31;4987381;28;1910;-72
2023/01/12 06:48:57;;;;;;;;;;;;;;;23.32;29.67;95337.81;4987797;28;1035;-72
2023/01/12 06:51:23;;;;;;;;;;;;;;;23.35;29.77;95342.75;4990601;28;1312;-72
2023/01/12 06:53:48;;;;;;;;;;;;;;;23.35;29.84;95348.09;4991987;28;816;-72
2023/01/12 06:56:13;;;;;;;;;;;;;;;23.37;29.63;95347.88;5023687;28;1188;-73
2023/01/12 06:58:41;;;;;;;;;;;;;;;23.35;29.78;95348.09;4982225;28;1064;-73
2023/01/12 07:01:06;;;;;;;;;;;;;;;23.36;29.66;95349.72;4991390;28;903;-72
2023/01/12 07:03:31;;;;;;;;;;;;;;;23.38;29.81;95355.69;4991218;28;819;-72
2023/01/12 07:05:58;;;;;;;;;;;;;;;23.38;29.64;95353.03;4991529;28;929;-72
2023/01/12 07:08:23;;;;;;;;;;;;;;;23.37;29.61;95351.38;4991342;28;1906;-72
2023/01/12 07:10:48;;;;;;;;;;;;;;;23.40;29.87;95348.28;4982226;28;961;-72
2023/01/12 07:13:14;;;;;;;;;;;;;;;23.42;29.83;95348.88;4990351;28;1189;-72
2023/01/12 07:15:39;;;;;;;;;;;;;;;23.40;29.64;95359.00;4991329;28;855;-72
2023/01/12 07:18:04;;;;;;;;;;;;;;;23.41;29.74;95357.94;4990491;28;1650;-73
2023/01/12 07:20:31;;;;;;;;;;;;;;;23.43;29.75;95352.38;4986923;28;1005;-72
2023/01/12 07:22:56;;;;;;;;;;;;;;;23.42;29.92;95354.22;4985226;28;1228;-73
2023/01/12 07:25:23;;;;;;;;;;;;;;;23.45;29.60;95352.97;4990495;28;1441;-73
2023/01/12 07:27:53;;;;;;;;;;;;;;;23.44;29.77;95352.16;4991876;28;1927;-72
2023/01/12 07:30:20;;;;;;;;;;;;;;;23.45;29.86;95353.81;4991087;28;1095;-73
2023/01/12 07:32:46;;;;;;;;;;;;;;;23.45;29.88;95352.97;4981285;28;1326;-73
2023/01/12 07:35:11;;;;;;;;;;;;;;;23.45;29.76;95358.31;4991335;28;1304;-72
2023/01/12 07:37:36;;;;;;;;;;;;;;;23.45;29.99;95353.81;4989855;28;1175;-73
2023/01/12 07:40:01;;;;;;;;;;;;;;;23.45;29.94;95352.97;4990318;28;1209;-73
2023/01/12 07:42:27;;;;;;;;;;;;;;;23.46;29.92;95358.13;4990160;28;1376;-73
2023/01/12 07:44:52;;;;;;;;;;;;;;;23.46;29.88;95355.44;4980491;28;1310;-73
2023/01/12 07:47:18;;;;;;;;;;;;;;;23.47;29.78;95356.25;4991796;28;1915;-73
2023/01/12 07:49:43;;;;;;;;;;;;;;;23.46;29.83;95360.81;4990393;28;1546;-73
2023/01/12 07:52:10;;;;;;;;;;;;;;;23.50;29.96;95361.19;4991563;28;827;-73
2023/01/12 07:54:36;;;;;;;;;;;;;;;23.47;29.79;95357.09;4987185;28;986;-73
2023/01/12 07:57:01;;;;;;;;;;;;;;;23.49;29.92;95360.38;5018277;28;1569;-73
2023/01/12 07:59:26;;;;;;;;;;;;;;;23.50;29.76;95358.50;4991272;28;878;-73
2023/01/12 08:01:53;;;;;;;;;;;;;;;23.49;29.85;95360.38;4991834;28;926;-73
2023/01/12 08:04:18;;;;;;;;;;;;;;;23.50;29.97;95367.34;4990168;28;1393;-73
2023/01/12 08:06:44;;;;;;;;;;;;;;;23.49;29.92;95363.06;4981856;28;1899;-73
2023/01/12 08:09:09;;;;;;;;;;;;;;;23.50;29.97;95366.53;4992374;28;886;-73
2023/01/12 08:11:36;;;;;;;;;;;;;;;23.51;29.70;95374.38;4994772;28;807;-74
2023/01/12 08:14:01;;;;;;;;;;;;;;;23.50;29.68;95370.03;4992720;28;1221;-74
2023/01/12 08:16:42;;;;;;;;;;;;;;;23.53;29.79;95377.63;4993157;28;1197;-74
2023/01/12 08:19:10;;;;;;;;;;;;;;;23.51;29.92;95362.84;4985269;28;992;-73
2023/01/12 08:21:44;;;;;;;;;;;;;;;23.49;29.98;95359.56;4992571;28;1228;-73
2023/01/12 08:24:09;;;;;;;;;;;;;;;23.51;29.73;95357.50;4994111;28;831;-73
2023/01/12 08:26:38;;;;;;;;;;;;;;;23.51;30.09;95360.16;4994475;28;1955;-73
2023/01/12 08:29:09;;;;;;;;;;;;;;;23.51;29.80;95355.63;4985752;28;979;-74
2023/01/12 08:31:34;;;;;;;;;;;;;;;23.56;29.93;95361.16;4993788;28;1424;-73
2023/01/12 08:34:00;;;;;;;;;;;;;;;23.56;29.75;95353.13;4994010;28;874;-74
2023/01/12 08:36:27;;;;;;;;;;;;;;;23.57;29.87;95362.78;4994190;28;1257;-74
2023/01/12 08:38:52;;;;;;;;;;;;;;;23.57;29.82;95360.13;4994382;28;811;-74
2023/01/12 08:41:32;;;;;;;;;;;;;;;23.57;29.76;95364.66;4983544;28;1241;-74
2023/01/12 08:44:01;;;;;;;;;;;;;;;23.51;29.95;95360.16;4993815;28;879;-73
2023/01/12 08:46:33;;;;;;;;;;;;;;;23.57;29.90;95362.78;4993861;28;1914;-74
2023/01/12 08:48:58;;;;;;;;;;;;;;;23.58;29.71;95358.25;4993967;28;934;-73
2023/01/12 08:51:24;;;;;;;;;;;;;;;23.58;29.94;95364.44;4989451;28;955;-73
2023/01/12 08:53:49;;;;;;;;;;;;;;;23.57;29.98;95370.03;4989503;28;1031;-73
2023/01/12 08:56:15;;;;;;;;;;;;;;;23.57;29.66;95364.66;4992979;28;1191;-73
2023/01/12 08:58:40;;;;;;;;;;;;;;;23.59;29.95;95362.56;4992818;28;1198;-73
2023/01/12 09:01:07;;;;;;;;;;;;;;;23.59;29.89;95359.88;5025710;28;1378;-73
2023/01/12 09:03:33;;;;;;;;;;;;;;;23.59;29.68;95365.25;4984602;28;1067;-73
2023/01/12 09:05:58;;;;;;;;;;;;;;;23.58;29.93;95372.47;4992441;28;1251;-72
2023/01/12 09:08:23;;;;;;;;;;;;;;;23.60;29.91;95366.09;4993438;28;1898;-73
2023/01/12 09:10:48;;;;;;;;;;;;;;;23.58;29.91;95368.97;4992548;28;1268;-73
2023/01/12 09:13:14;;;;;;;;;;;;;;;23.59;29.98;95367.91;4993724;28;880;-72
2023/01/12 09:15:40;;;;;;;;;;;;;;;23.61;29.91;95370.41;5015801;28;1343;-73
2023/01/12 09:18:05;;;;;;;;;;;;;;;23.62;29.64;95369.34;4993868;28;843;-73
2023/01/12 09:20:32;;;;;;;;;;;;;;;23.62;29.64;95362.13;4993557;28;863;-73
2023/01/12 09:22:57;;;;;;;;;;;;;;;23.64;29.82;95364.59;4993408;28;895;-73
2023/01/12 09:25:22;;;;;;;;;;;;;;;23.63;29.95;95360.28;5020386;28;1253;-74
2023/01/12 09:27:47;;;;;;;;;;;;;;;23.62;29.92;95364.81;4987485;28;1890;-72
2023/01/12 09:30:13;;;;;;;;;;;;;;;23.63;29.80;95369.16;4993301;28;1214;-72
2023/01/12 09:32:38;;;;;;;;;;;;;;;23.61;29.91;95367.72;5025514;28;1195;-72
2023/01/12 09:35:04;;;;;;;;;;;;;;;23.61;29.93;95368.53;4992307;28;1340;-72
2023/01/12 09:37:29;;;;;;;;;;;;;;;23.60;29.82;95361.53;4982346;28;1192;-72
2023/01/12 09:39:54;;;;;;;;;;;;;;;23.63;29.79;95357.63;4993323;28;1261;-72
2023/01/12 09:48:02;;;;;;;;;;;;;;;23.63;30.00;95354.94;4988770;28;1972;-73
2023/01/12 09:50:30;;;;;;;;;;;;;;;23.62;29.96;95353.28;4986777;28;1320;-72
2023/01/12 09:52:58;;;;;;;;;;;;;;;23.62;29.97;95351.41;4991986;28;1282;-73
2023/01/12 09:55:25;;;;;;;;;;;;;;;23.63;29.95;95344.22;4993292;28;929;-73
2023/01/12 09:58:09;;;;;;;;;;;;;;;23.61;30.00;95347.09;4990649;28;1175;-73
2023/01/12 10:00:34;;;;;;;;;;;;;;;23.57;29.87;95336.00;4983398;28;1056;-73
2023/01/12 10:03:12;;;;;;;;;;;;;;;23.61;29.91;95344.44;4991515;28;1154;-73
2023/01/12 10:05:43;;;;;;;;;;;;;;;23.60;30.07;95339.31;4992769;28;981;-73
2023/01/12 10:08:14;;;;;;;;;;;;;;;23.61;29.98;95344.44;4992972;28;1902;-72
2023/01/12 10:10:46;;;;;;;;;;;;;;;23.63;29.81;95344.22;4988417;28;1066;-73
2023/01/12 10:13:13;;;;;;;;;;;;;;;23.62;29.94;95343.38;4987697;28;1002;-73
2023/01/12 10:15:38;;;;;;;;;;;;;;;23.61;30.04;95348.97;4992619;28;898;-72
2023/01/12 10:18:22;;;;;;;;;;;;;;;23.60;30.04;95348.16;4992474;28;847;-72
2023/01/12 10:20:47;;;;;;;;;;;;;;;23.61;30.05;95351.66;4992495;28;906;-73
2023/01/12 10:23:18;;;;;;;;;;;;;;;23.62;29.99;95350.59;4983614;28;1081;-73
2023/01/12 10:25:49;;;;;;;;;;;;;;;23.58;29.93;95344.88;4992987;28;824;-73
2023/01/12 10:28:23;;;;;;;;;;;;;;;23.57;29.80;95341.38;4990193;28;1911;-73
2023/01/12 10:30:48;;;;;;;;;;;;;;;23.58;29.98;95332.28;4991367;28;1221;-73
2023/01/12 10:33:20;;;;;;;;;;;;;;;23.56;29.98;95333.53;4987283;28;1013;-72
2023/01/12 10:36:06;;;;;;;;;;;;;;;23.60;30.15;95340.13;4987349;28;1246;-71
2023/01/12 10:38:37;;;;;;;;;;;;;;;23.60;29.95;95350.84;4990651;28;1248;-71
2023/01/12 10:41:02;;;;;;;;;;;;;;;23.63;30.14;95344.22;4991002;28;1210;-71
2023/01/12 10:43:32;;;;;;;;;;;;;;;23.58;30.01;95340.31;4991681;28;823;-72
2023/01/12 10:46:14;;;;;;;;;;;;;;;23.60;30.04;95340.13;4981371;28;1218;-72
2023/01/12 10:48:44;;;;;;;;;;;;;;;23.60;30.06;95344.66;4990190;28;1350;-72
2023/01/12 10:51:26;;;;;;;;;;;;;;;23.58;29.99;95345.69;4991385;28;812;-72
2023/01/12 10:53:57;;;;;;;;;;;;;;;23.54;30.12;95339.13;4990824;28;1268;-72
2023/01/12 10:56:28;;;;;;;;;;;;;;;23.57;30.08;95327.97;4987334;28;1168;-73
2023/01/12 10:58:58;;;;;;;;;;;;;;;23.57;29.97;95330.66;4988493;28;1245;-72
2023/01/12 11:01:24;;;;;;;;;;;;;;;23.55;30.19;95331.91;4992201;28;819;-72
2023/01/12 11:03:49;;;;;;;;;;;;;;;23.55;30.19;95327.38;4991709;28;883;-72
2023/01/12 11:06:20;;;;;;;;;;;;;;;23.57;30.15;95321.81;4991520;28;1898;-72
2023/01/12 11:08:46;;;;;;;;;;;;;;;23.57;30.15;95324.50;4982556;28;1114;-72
2023/01/12 11:11:13;;;;;;;;;;;;;;;23.55;30.02;95321.19;4991920;28;879;-72
2023/01/12 11:13:39;;;;;;;;;;;;;;;23.60;30.16;95312.53;4991324;28;882;-71
2023/01/12 11:16:13;;;;;;;;;;;;;;;23.60;30.10;95315.19;4990607;28;1162;-72
2023/01/12 11:18:44;;;;;;;;;;;;;;;23.59;29.96;95317.03;4985496;28;1280;-72
2023/01/12 11:21:11;;;;;;;;;;;;;;;23.54;30.00;95315.03;4986718;28;934;-72
2023/01/12 11:23:43;;;;;;;;;;;;;;;23.56;30.19;95310.28;5023064;28;1196;-73
2023/01/12 11:26:29;;;;;;;;;;;;;;;23.54;30.16;95308.84;4990600;28;1189;-72
2023/01/12 11:28:58;;;;;;;;;;;;;;;23.56;30.16;95306.75;4991634;28;795;-72
2023/01/12 11:31:30;;;;;;;;;;;;;;;23.56;30.01;95302.25;4981218;28;1332;-72
2023/01/12 11:33:58;;;;;;;;;;;;;;;23.53;30.30;95297.31;4990047;28;1200;-72
2023/01/12 11:36:27;;;;;;;;;;;;;;;23.54;30.03;95306.19;4991253;28;1337;-71
2023/01/12 11:38:57;;;;;;;;;;;;;;;23.56;30.02;95302.25;4989834;28;1383;-71
2023/01/12 11:41:34;;;;;;;;;;;;;;;23.54;30.07;95301.63;4986683;28;851;-72
2023/01/12 11:44:03;;;;;;;;;;;;;;;23.55;30.10;95297.09;4987601;28;1648;-72
2023/01/12 11:46:37;;;;;;;;;;;;;;;23.56;30.02;95294.22;4995577;28;1968;-72
2023/01/12 11:49:11;;;;;;;;;;;;;;;23.53;30.05;95297.31;4994387;28;882;-72
2023/01/12 11:51:37;;;;;;;;;;;;;;;23.55;30.30;95294.41;4993869;28;1380;-72
2023/01/12 11:54:04;;;;;;;;;;;;;;;23.56;30.28;95296.03;4984446;28;1325;-72
2023/01/12 11:56:45;;;;;;;;;;;;;;;23.55;30.21;95286.38;4994585;28;823;-72
2023/01/12 11:59:13;;;;;;;;;;;;;;;23.53;30.23;95281.22;4993417;28;1313;-72
2023/01/12 12:01:41;;;;;;;;;;;;;;;23.56;30.27;95285.34;4994572;28;867;-72
2023/01/12 12:04:10;;;;;;;;;;;;;;;23.58;30.03;95275.22;4990181;28;907;-72
2023/01/12 12:06:50;;;;;;;;;;;;;;;23.55;30.07;95289.06;4988957;28;1902;-73
2023/01/12 12:09:24;;;;;;;;;;;;;;;23.54;30.14;95293.59;4994560;28;886;-72
2023/01/12 12:11:50;;;;;;;;;;;;;;;23.51;30.11;95277.97;4993700;28;1699;-73
2023/01/12 12:14:34;;;;;;;;;;;;;;;23.56;30.13;95279.97;4993242;28;1331;-73
2023/01/12 12:17:22;;;;;;;;;;;;;;;23.51;30.12;95283.31;4983689;28;1244;-73
2023/01/12 12:20:02;;;;;;;;;;;;;;;23.52;30.29;95281.47;4994140;28;942;-73
2023/01/12 12:22:30;;;;;;;;;;;;;;;23.57;30.24;95281.63;4994555;28;926;-72
2023/01/12 12:25:01;;;;;;;;;;;;;;;23.55;30.10;95273.00;4993032;28;1193;-71
2023/01/12 12:27:34;;;;;;;;;;;;;;;23.56;30.19;95279.97;4984040;28;1910;-72
2023/01/12 12:30:18;;;;;;;;;;;;;;;23.54;30.21;95277.53;4995441;28;1317;-72
2023/01/12 12:32:47;;;;;;;;;;;;;;;23.51;30.21;95282.50;4994245;28;1363;-72
2023/01/12 12:35:26;;;;;;;;;;;;;;;23.53;30.18;95275.06;4994063;28;1171;-73
2023/01/12 12:38:01;;;;;;;;;;;;;;;23.55;30.03;95284.53;4995582;28;835;-72
2023/01/12 12:45:15;;;;;;;;;;;;;;;23.51;30.40;95272.63;4988710;28;1091;-72
2023/01/12 12:46:11;;;;;;;;;;;;;;;23.49;30.37;95279.22;4994443;28;785;-71
2023/01/12 12:48:36;;;;;;;;;;;;;;;23.49;30.15;95280.03;4992381;28;1910;-72
2023/01/12 12:51:05;;;;;;;;;;;;;;;23.53;30.26;95280.41;4984925;28;1050;-72
2023/01/12 12:53:34;;;;;;;;;;;;;;;23.49;30.13;95274.69;4994161;28;938;-72
2023/01/12 12:56:07;;;;;;;;;;;;;;;23.56;30.22;95290.69;4992999;28;851;-72
2023/01/12 12:58:46;;;;;;;;;;;;;;;23.53;30.12;95286.59;4994043;28;973;-72
2023/01/12 13:01:20;;;;;;;;;;;;;;;23.52;30.24;95279.59;4989109;28;1153;-72
2023/01/12 13:03:59;;;;;;;;;;;;;;;23.49;30.30;95280.03;4988665;28;1185;-72
2023/01/12 13:06:27;;;;;;;;;;;;;;;23.51;30.17;95285.19;4993836;28;1906;-72
2023/01/12 13:08:56;;;;;;;;;;;;;;;23.50;30.17;95284.34;4993707;28;863;-72
2023/01/12 13:11:42;;;;;;;;;;;;;;;23.50;30.12;95291.56;4993362;28;938;-72
2023/01/12 13:14:17;;;;;;;;;;;;;;;23.55;30.22;95286.38;4976260;28;1248;-71
2023/01/12 13:16:45;;;;;;;;;;;;;;;23.52;30.26;95293.00;4993920;28;922;-72
2023/01/12 13:19:12;;;;;;;;;;;;;;;23.54;30.27;95292.78;4992136;28;1193;-71
2023/01/12 13:22:15;;;;;;;;;;;;;;;23.55;30.28;95289.06;4993498;28;870;-72
2023/01/12 13:24:41;;;;;;;;;;;;;;;23.50;30.10;95297.72;4982517;28;1452;-71
2023/01/12 13:27:31;;;;;;;;;;;;;;;23.54;30.24;95298.13;4992830;28;1910;-72
2023/01/12 13:30:19;;;;;;;;;;;;;;;23.52;30.26;95284.97;4983132;28;1223;-73
2023/01/12 13:32:53;;;;;;;;;;;;;;;23.49;30.30;95285.41;4952445;29;1470;-71
2023/01/12 13:35:34;;;;;;;;;;;;;;;23.49;30.35;95284.56;4948289;28;1296;-71
2023/01/12 13:38:01;;;;;;;;;;;;;;;23.47;30.29;95282.09;4952426;29;1611;-72
2023/01/12 13:40:27;;;;;;;;;;;;;;;23.46;30.18;95283.16;4952617;29;915;-72
2023/01/12 13:43:14;;;;;;;;;;;;;;;23.53;30.13;95291.94;4954517;29;908;-73
2023/01/12 13:45:44;;;;;;;;;;;;;;;23.21;29.31;95287.66;4935224;29;960;-71
2023/01/12 13:48:11;;;;;;;;;;;;;;;23.21;29.99;95282.28;4934134;29;1910;-76
2023/01/12 13:50:37;;;;;;;;;;;;;;;23.26;30.27;95291.31;4954031;28;833;-71